Swisshome, Oregon
Current Conditions -  °F | °C
As of 5:54 PM on Wednesday 22 Oct 2014 (Local Time) from KEUG Reporting Station
Moderate Rain Moderate Rain  
Wind Chill: 56°   Ceiling: 2300
Heat Index: 56°   Visibility: 2mi
Dew Point: 55°   Wind: 0mph
Humidity: 97%   Direction: NA
Pressure: 29.77"   Gusts: NA
Location:  44.06°N, 123.8°W
Report Text: KEUG 230054Z 00000KT 2SM RA BR BKN023 BKN030 OVC070 13/13 A2977 RMK AO2 SLP080 P0024 T01330128
Loading
Personal Weather Stations






























Interactive Weather Map
Tropical Storm Tracking
New forecast layout! Learn more

10-Day Weather Forecast

Advertisements
Track Severe Weather on mobile